sensor_id;sensor_type;location;lat;lon;timestamp;P1;durP1;ratioP1;P2;durP2;ratioP2
35380;SDS011;21486;51.916;8.378;2023-11-19T00:00:19;2.00;;;1.40;;
35380;SDS011;21486;51.916;8.378;2023-11-19T00:02:44;2.10;;;1.33;;
35380;SDS011;21486;51.916;8.378;2023-11-19T00:05:10;1.97;;;1.60;;
35380;SDS011;21486;51.916;8.378;2023-11-19T00:07:36;1.50;;;1.40;;
35380;SDS011;21486;51.916;8.378;2023-11-19T00:10:06;2.42;;;1.73;;
35380;SDS011;21486;51.916;8.378;2023-11-19T00:12:39;2.40;;;1.70;;
35380;SDS011;21486;51.916;8.378;2023-11-19T00:15:07;3.90;;;1.70;;
35380;SDS011;21486;51.916;8.378;2023-11-19T00:17:39;1.87;;;1.70;;
35380;SDS011;21486;51.916;8.378;2023-11-19T00:20:13;2.57;;;1.80;;
35380;SDS011;21486;51.916;8.378;2023-11-19T00:22:39;3.53;;;2.10;;
35380;SDS011;21486;51.916;8.378;2023-11-19T00:25:06;2.45;;;1.83;;
35380;SDS011;21486;51.916;8.378;2023-11-19T00:27:32;3.08;;;2.15;;
35380;SDS011;21486;51.916;8.378;2023-11-19T00:29:58;2.87;;;1.97;;
35380;SDS011;21486;51.916;8.378;2023-11-19T00:32:23;2.20;;;2.00;;
35380;SDS011;21486;51.916;8.378;2023-11-19T00:34:49;2.60;;;1.70;;
35380;SDS011;21486;51.916;8.378;2023-11-19T00:37:15;5.10;;;2.00;;
35380;SDS011;21486;51.916;8.378;2023-11-19T00:39:41;2.63;;;1.90;;
35380;SDS011;21486;51.916;8.378;2023-11-19T00:42:07;2.47;;;1.90;;
35380;SDS011;21486;51.916;8.378;2023-11-19T00:44:33;2.00;;;1.80;;
35380;SDS011;21486;51.916;8.378;2023-11-19T00:46:58;2.55;;;1.90;;
35380;SDS011;21486;51.916;8.378;2023-11-19T00:49:25;3.27;;;1.90;;
35380;SDS011;21486;51.916;8.378;2023-11-19T00:51:50;2.80;;;1.60;;
35380;SDS011;21486;51.916;8.378;2023-11-19T00:54:16;1.93;;;1.60;;
35380;SDS011;21486;51.916;8.378;2023-11-19T00:56:42;2.95;;;1.70;;
35380;SDS011;21486;51.916;8.378;2023-11-19T00:59:07;2.88;;;1.65;;
35380;SDS011;21486;51.916;8.378;2023-11-19T01:01:33;2.95;;;1.55;;
35380;SDS011;21486;51.916;8.378;2023-11-19T01:03:59;1.67;;;1.57;;
35380;SDS011;21486;51.916;8.378;2023-11-19T01:06:30;1.70;;;1.50;;
35380;SDS011;21486;51.916;8.378;2023-11-19T01:08:57;3.72;;;1.65;;
35380;SDS011;21486;51.916;8.378;2023-11-19T01:11:23;1.90;;;1.50;;
35380;SDS011;21486;51.916;8.378;2023-11-19T01:13:50;2.50;;;1.83;;
35380;SDS011;21486;51.916;8.378;2023-11-19T01:16:16;2.83;;;2.00;;
35380;SDS011;21486;51.916;8.378;2023-11-19T01:18:42;3.03;;;2.00;;
35380;SDS011;21486;51.916;8.378;2023-11-19T01:21:07;2.72;;;1.95;;
35380;SDS011;21486;51.916;8.378;2023-11-19T01:23:33;3.78;;;1.83;;
35380;SDS011;21486;51.916;8.378;2023-11-19T01:25:59;2.38;;;2.00;;
35380;SDS011;21486;51.916;8.378;2023-11-19T01:28:25;3.83;;;2.20;;
35380;SDS011;21486;51.916;8.378;2023-11-19T01:33:01;2.65;;;2.28;;
35380;SDS011;21486;51.916;8.378;2023-11-19T01:35:27;2.77;;;2.30;;
35380;SDS011;21486;51.916;8.378;2023-11-19T01:37:52;2.50;;;2.08;;
35380;SDS011;21486;51.916;8.378;2023-11-19T01:40:21;3.83;;;2.00;;
35380;SDS011;21486;51.916;8.378;2023-11-19T01:42:47;2.92;;;2.05;;
35380;SDS011;21486;51.916;8.378;2023-11-19T01:45:19;3.40;;;2.20;;
35380;SDS011;21486;51.916;8.378;2023-11-19T01:47:51;2.80;;;1.85;;
35380;SDS011;21486;51.916;8.378;2023-11-19T01:50:17;2.93;;;2.20;;
35380;SDS011;21486;51.916;8.378;2023-11-19T01:52:44;2.00;;;1.80;;
35380;SDS011;21486;51.916;8.378;2023-11-19T01:55:10;2.17;;;1.85;;
35380;SDS011;21486;51.916;8.378;2023-11-19T01:57:37;1.90;;;1.55;;
35380;SDS011;21486;51.916;8.378;2023-11-19T02:00:03;1.75;;;1.60;;
35380;SDS011;21486;51.916;8.378;2023-11-19T02:02:30;2.00;;;1.60;;
35380;SDS011;21486;51.916;8.378;2023-11-19T02:04:56;2.03;;;1.65;;
35380;SDS011;21486;51.916;8.378;2023-11-19T02:07:22;3.22;;;2.20;;
35380;SDS011;21486;51.916;8.378;2023-11-19T02:09:50;2.83;;;2.00;;
35380;SDS011;21486;51.916;8.378;2023-11-19T02:12:16;3.57;;;2.00;;
35380;SDS011;21486;51.916;8.378;2023-11-19T02:14:41;3.55;;;1.98;;
35380;SDS011;21486;51.916;8.378;2023-11-19T02:17:07;4.03;;;2.50;;
35380;SDS011;21486;51.916;8.378;2023-11-19T02:19:49;3.83;;;2.33;;
35380;SDS011;21486;51.916;8.378;2023-11-19T02:22:15;2.90;;;2.20;;
35380;SDS011;21486;51.916;8.378;2023-11-19T02:24:40;5.25;;;2.45;;
35380;SDS011;21486;51.916;8.378;2023-11-19T02:27:16;3.25;;;2.40;;
35380;SDS011;21486;51.916;8.378;2023-11-19T02:29:51;3.97;;;2.67;;
35380;SDS011;21486;51.916;8.378;2023-11-19T02:32:17;5.40;;;2.83;;
35380;SDS011;21486;51.916;8.378;2023-11-19T02:34:42;4.63;;;2.83;;
35380;SDS011;21486;51.916;8.378;2023-11-19T02:37:08;5.40;;;2.93;;
35380;SDS011;21486;51.916;8.378;2023-11-19T02:39:34;5.28;;;2.90;;
35380;SDS011;21486;51.916;8.378;2023-11-19T02:42:01;5.82;;;3.40;;
35380;SDS011;21486;51.916;8.378;2023-11-19T02:44:27;6.50;;;3.30;;
35380;SDS011;21486;51.916;8.378;2023-11-19T02:46:55;5.65;;;3.38;;
35380;SDS011;21486;51.916;8.378;2023-11-19T02:49:24;5.15;;;3.58;;
35380;SDS011;21486;51.916;8.378;2023-11-19T02:51:50;7.47;;;4.13;;
35380;SDS011;21486;51.916;8.378;2023-11-19T02:54:16;6.93;;;4.70;;
35380;SDS011;21486;51.916;8.378;2023-11-19T02:56:44;7.43;;;4.77;;
35380;SDS011;21486;51.916;8.378;2023-11-19T02:59:13;10.77;;;5.40;;
35380;SDS011;21486;51.916;8.378;2023-11-19T03:01:52;7.65;;;4.90;;
35380;SDS011;21486;51.916;8.378;2023-11-19T03:04:18;8.73;;;5.37;;
35380;SDS011;21486;51.916;8.378;2023-11-19T03:06:45;11.98;;;6.03;;
35380;SDS011;21486;51.916;8.378;2023-11-19T03:09:11;13.33;;;6.80;;
35380;SDS011;21486;51.916;8.378;2023-11-19T03:11:36;15.03;;;7.83;;
35380;SDS011;21486;51.916;8.378;2023-11-19T03:14:02;15.73;;;8.23;;
35380;SDS011;21486;51.916;8.378;2023-11-19T03:16:28;14.50;;;8.70;;
35380;SDS011;21486;51.916;8.378;2023-11-19T03:18:54;15.60;;;9.00;;
35380;SDS011;21486;51.916;8.378;2023-11-19T03:21:26;18.63;;;9.67;;
35380;SDS011;21486;51.916;8.378;2023-11-19T03:23:56;18.92;;;8.93;;
35380;SDS011;21486;51.916;8.378;2023-11-19T03:26:25;21.35;;;9.32;;
35380;SDS011;21486;51.916;8.378;2023-11-19T03:28:52;18.23;;;9.63;;
35380;SDS011;21486;51.916;8.378;2023-11-19T03:31:18;18.92;;;9.77;;
35380;SDS011;21486;51.916;8.378;2023-11-19T03:33:43;15.73;;;8.77;;
35380;SDS011;21486;51.916;8.378;2023-11-19T03:36:10;14.75;;;9.07;;
35380;SDS011;21486;51.916;8.378;2023-11-19T03:38:35;15.10;;;8.43;;
35380;SDS011;21486;51.916;8.378;2023-11-19T03:41:01;14.32;;;8.30;;
35380;SDS011;21486;51.916;8.378;2023-11-19T03:43:35;12.65;;;7.57;;
35380;SDS011;21486;51.916;8.378;2023-11-19T03:46:01;13.10;;;7.03;;
35380;SDS011;21486;51.916;8.378;2023-11-19T03:48:27;14.02;;;7.10;;
35380;SDS011;21486;51.916;8.378;2023-11-19T03:50:53;12.73;;;7.40;;
35380;SDS011;21486;51.916;8.378;2023-11-19T03:53:18;13.10;;;6.90;;
35380;SDS011;21486;51.916;8.378;2023-11-19T03:55:44;14.52;;;6.97;;
35380;SDS011;21486;51.916;8.378;2023-11-19T03:58:10;15.07;;;7.00;;
35380;SDS011;21486;51.916;8.378;2023-11-19T04:00:35;14.80;;;6.93;;
35380;SDS011;21486;51.916;8.378;2023-11-19T04:03:01;14.57;;;6.53;;
35380;SDS011;21486;51.916;8.378;2023-11-19T04:05:27;13.30;;;6.35;;
35380;SDS011;21486;51.916;8.378;2023-11-19T04:07:53;17.27;;;6.25;;
35380;SDS011;21486;51.916;8.378;2023-11-19T04:10:18;11.60;;;5.82;;
35380;SDS011;21486;51.916;8.378;2023-11-19T04:12:45;13.48;;;5.68;;
35380;SDS011;21486;51.916;8.378;2023-11-19T04:15:11;16.67;;;5.90;;
35380;SDS011;21486;51.916;8.378;2023-11-19T04:17:37;16.58;;;6.32;;
35380;SDS011;21486;51.916;8.378;2023-11-19T04:20:02;9.82;;;5.35;;
35380;SDS011;21486;51.916;8.378;2023-11-19T04:22:29;15.32;;;4.85;;
35380;SDS011;21486;51.916;8.378;2023-11-19T04:24:54;17.63;;;5.20;;
35380;SDS011;21486;51.916;8.378;2023-11-19T04:27:20;14.23;;;4.67;;
35380;SDS011;21486;51.916;8.378;2023-11-19T04:29:45;12.52;;;4.55;;
35380;SDS011;21486;51.916;8.378;2023-11-19T04:32:12;15.25;;;4.95;;
35380;SDS011;21486;51.916;8.378;2023-11-19T04:34:37;16.75;;;4.38;;
35380;SDS011;21486;51.916;8.378;2023-11-19T04:37:03;11.73;;;4.20;;
35380;SDS011;21486;51.916;8.378;2023-11-19T04:39:29;16.80;;;4.63;;
35380;SDS011;21486;51.916;8.378;2023-11-19T04:41:55;13.35;;;3.97;;
35380;SDS011;21486;51.916;8.378;2023-11-19T04:44:21;19.30;;;4.73;;
35380;SDS011;21486;51.916;8.378;2023-11-19T04:46:47;13.57;;;3.85;;
35380;SDS011;21486;51.916;8.378;2023-11-19T04:49:13;13.73;;;4.13;;
35380;SDS011;21486;51.916;8.378;2023-11-19T04:51:40;17.35;;;4.68;;
35380;SDS011;21486;51.916;8.378;2023-11-19T04:54:07;11.75;;;3.40;;
35380;SDS011;21486;51.916;8.378;2023-11-19T04:56:33;12.65;;;3.78;;
35380;SDS011;21486;51.916;8.378;2023-11-19T04:59:00;15.63;;;4.00;;
35380;SDS011;21486;51.916;8.378;2023-11-19T05:04:05;13.02;;;3.95;;
35380;SDS011;21486;51.916;8.378;2023-11-19T05:06:32;11.80;;;3.60;;
35380;SDS011;21486;51.916;8.378;2023-11-19T05:08:58;16.88;;;3.72;;
35380;SDS011;21486;51.916;8.378;2023-11-19T05:11:33;16.83;;;3.90;;
35380;SDS011;21486;51.916;8.378;2023-11-19T05:13:59;16.38;;;3.53;;
35380;SDS011;21486;51.916;8.378;2023-11-19T05:16:25;15.47;;;3.80;;
35380;SDS011;21486;51.916;8.378;2023-11-19T05:18:51;17.17;;;3.60;;
35380;SDS011;21486;51.916;8.378;2023-11-19T05:21:16;21.33;;;3.78;;
35380;SDS011;21486;51.916;8.378;2023-11-19T05:23:42;15.00;;;4.10;;
35380;SDS011;21486;51.916;8.378;2023-11-19T05:26:08;14.93;;;3.58;;
35380;SDS011;21486;51.916;8.378;2023-11-19T05:28:35;10.57;;;3.33;;
35380;SDS011;21486;51.916;8.378;2023-11-19T05:31:04;20.80;;;4.75;;
35380;SDS011;21486;51.916;8.378;2023-11-19T05:33:30;13.50;;;3.70;;
35380;SDS011;21486;51.916;8.378;2023-11-19T05:35:56;17.30;;;3.47;;
35380;SDS011;21486;51.916;8.378;2023-11-19T05:38:22;19.20;;;3.90;;
35380;SDS011;21486;51.916;8.378;2023-11-19T05:40:48;18.48;;;3.83;;
35380;SDS011;21486;51.916;8.378;2023-11-19T05:43:14;14.03;;;3.50;;
35380;SDS011;21486;51.916;8.378;2023-11-19T05:45:41;17.27;;;3.83;;
35380;SDS011;21486;51.916;8.378;2023-11-19T05:48:07;15.18;;;3.65;;
35380;SDS011;21486;51.916;8.378;2023-11-19T05:50:34;15.82;;;3.78;;
35380;SDS011;21486;51.916;8.378;2023-11-19T05:53:00;15.47;;;3.83;;
35380;SDS011;21486;51.916;8.378;2023-11-19T05:55:26;19.50;;;3.78;;
35380;SDS011;21486;51.916;8.378;2023-11-19T05:57:53;20.40;;;4.00;;
35380;SDS011;21486;51.916;8.378;2023-11-19T06:00:19;19.42;;;4.65;;
35380;SDS011;21486;51.916;8.378;2023-11-19T06:02:44;18.33;;;4.32;;
35380;SDS011;21486;51.916;8.378;2023-11-19T06:05:10;19.93;;;4.33;;
35380;SDS011;21486;51.916;8.378;2023-11-19T06:07:35;15.37;;;4.10;;
35380;SDS011;21486;51.916;8.378;2023-11-19T06:10:02;17.75;;;4.28;;
35380;SDS011;21486;51.916;8.378;2023-11-19T06:12:30;13.93;;;3.80;;
35380;SDS011;21486;51.916;8.378;2023-11-19T06:14:58;16.90;;;3.70;;
35380;SDS011;21486;51.916;8.378;2023-11-19T06:17:24;22.42;;;5.32;;
35380;SDS011;21486;51.916;8.378;2023-11-19T06:19:50;17.10;;;3.83;;
35380;SDS011;21486;51.916;8.378;2023-11-19T06:22:16;22.77;;;4.27;;
35380;SDS011;21486;51.916;8.378;2023-11-19T06:24:41;22.53;;;5.13;;
35380;SDS011;21486;51.916;8.378;2023-11-19T06:27:07;26.27;;;5.28;;
35380;SDS011;21486;51.916;8.378;2023-11-19T06:29:33;24.10;;;4.43;;
35380;SDS011;21486;51.916;8.378;2023-11-19T06:31:58;25.90;;;4.90;;
35380;SDS011;21486;51.916;8.378;2023-11-19T06:34:24;23.10;;;4.50;;
35380;SDS011;21486;51.916;8.378;2023-11-19T06:36:49;18.83;;;4.73;;
35380;SDS011;21486;51.916;8.378;2023-11-19T06:39:15;28.77;;;4.63;;
35380;SDS011;21486;51.916;8.378;2023-11-19T06:41:44;26.00;;;4.80;;
35380;SDS011;21486;51.916;8.378;2023-11-19T06:44:11;27.63;;;5.10;;
35380;SDS011;21486;51.916;8.378;2023-11-19T06:46:37;25.98;;;4.55;;
35380;SDS011;21486;51.916;8.378;2023-11-19T06:49:02;26.50;;;4.43;;
35380;SDS011;21486;51.916;8.378;2023-11-19T06:51:28;27.13;;;5.33;;
35380;SDS011;21486;51.916;8.378;2023-11-19T06:53:54;28.38;;;4.57;;
35380;SDS011;21486;51.916;8.378;2023-11-19T06:56:20;18.90;;;4.30;;
35380;SDS011;21486;51.916;8.378;2023-11-19T06:58:47;22.40;;;5.00;;
35380;SDS011;21486;51.916;8.378;2023-11-19T07:01:15;23.35;;;4.53;;
35380;SDS011;21486;51.916;8.378;2023-11-19T07:03:42;30.60;;;4.57;;
35380;SDS011;21486;51.916;8.378;2023-11-19T07:06:11;31.95;;;5.10;;
35380;SDS011;21486;51.916;8.378;2023-11-19T07:08:41;22.73;;;4.28;;
35380;SDS011;21486;51.916;8.378;2023-11-19T07:11:10;28.98;;;5.63;;
35380;SDS011;21486;51.916;8.378;2023-11-19T07:13:36;24.23;;;4.60;;
35380;SDS011;21486;51.916;8.378;2023-11-19T07:16:02;33.03;;;4.72;;
35380;SDS011;21486;51.916;8.378;2023-11-19T07:18:28;31.30;;;4.10;;
35380;SDS011;21486;51.916;8.378;2023-11-19T07:20:54;25.48;;;4.93;;
35380;SDS011;21486;51.916;8.378;2023-11-19T07:23:20;25.80;;;4.13;;
35380;SDS011;21486;51.916;8.378;2023-11-19T07:25:46;28.03;;;5.63;;
35380;SDS011;21486;51.916;8.378;2023-11-19T07:28:12;23.77;;;4.03;;
35380;SDS011;21486;51.916;8.378;2023-11-19T07:30:38;28.40;;;4.97;;
35380;SDS011;21486;51.916;8.378;2023-11-19T07:33:04;33.20;;;4.72;;
35380;SDS011;21486;51.916;8.378;2023-11-19T07:35:30;30.45;;;5.50;;
35380;SDS011;21486;51.916;8.378;2023-11-19T07:37:56;25.13;;;4.95;;
35380;SDS011;21486;51.916;8.378;2023-11-19T07:40:22;28.38;;;5.15;;
35380;SDS011;21486;51.916;8.378;2023-11-19T07:42:49;24.33;;;4.70;;
35380;SDS011;21486;51.916;8.378;2023-11-19T07:45:15;29.67;;;5.57;;
35380;SDS011;21486;51.916;8.378;2023-11-19T07:47:41;31.23;;;6.45;;
35380;SDS011;21486;51.916;8.378;2023-11-19T07:50:09;31.35;;;5.10;;
35380;SDS011;21486;51.916;8.378;2023-11-19T07:52:34;23.08;;;4.13;;
35380;SDS011;21486;51.916;8.378;2023-11-19T07:55:00;24.88;;;4.30;;
35380;SDS011;21486;51.916;8.378;2023-11-19T07:57:26;26.95;;;4.68;;
35380;SDS011;21486;51.916;8.378;2023-11-19T07:59:55;27.50;;;4.82;;
35380;SDS011;21486;51.916;8.378;2023-11-19T08:02:20;30.77;;;5.40;;
35380;SDS011;21486;51.916;8.378;2023-11-19T08:04:46;31.20;;;4.60;;
35380;SDS011;21486;51.916;8.378;2023-11-19T08:07:15;28.63;;;4.55;;
35380;SDS011;21486;51.916;8.378;2023-11-19T08:09:41;24.15;;;4.07;;
35380;SDS011;21486;51.916;8.378;2023-11-19T08:12:07;31.83;;;4.68;;
35380;SDS011;21486;51.916;8.378;2023-11-19T08:14:33;27.80;;;4.63;;
35380;SDS011;21486;51.916;8.378;2023-11-19T08:16:59;28.13;;;5.30;;
35380;SDS011;21486;51.916;8.378;2023-11-19T08:19:25;24.10;;;5.17;;
35380;SDS011;21486;51.916;8.378;2023-11-19T08:21:50;29.88;;;4.93;;
35380;SDS011;21486;51.916;8.378;2023-11-19T08:24:16;28.20;;;4.50;;
35380;SDS011;21486;51.916;8.378;2023-11-19T08:26:41;25.97;;;4.90;;
35380;SDS011;21486;51.916;8.378;2023-11-19T08:29:07;27.07;;;4.80;;
35380;SDS011;21486;51.916;8.378;2023-11-19T08:31:33;23.17;;;4.15;;
35380;SDS011;21486;51.916;8.378;2023-11-19T08:33:58;29.33;;;4.78;;
35380;SDS011;21486;51.916;8.378;2023-11-19T08:36:24;32.73;;;5.10;;
35380;SDS011;21486;51.916;8.378;2023-11-19T08:38:49;28.33;;;5.03;;
35380;SDS011;21486;51.916;8.378;2023-11-19T08:41:16;23.17;;;5.32;;
35380;SDS011;21486;51.916;8.378;2023-11-19T08:43:44;29.38;;;5.88;;
35380;SDS011;21486;51.916;8.378;2023-11-19T08:46:10;24.20;;;4.95;;
35380;SDS011;21486;51.916;8.378;2023-11-19T08:48:37;26.67;;;4.22;;
35380;SDS011;21486;51.916;8.378;2023-11-19T08:51:02;31.60;;;5.00;;
35380;SDS011;21486;51.916;8.378;2023-11-19T08:53:29;31.45;;;4.80;;
35380;SDS011;21486;51.916;8.378;2023-11-19T08:55:55;30.25;;;4.70;;
35380;SDS011;21486;51.916;8.378;2023-11-19T08:58:21;27.73;;;4.45;;
35380;SDS011;21486;51.916;8.378;2023-11-19T09:00:46;27.05;;;4.50;;
35380;SDS011;21486;51.916;8.378;2023-11-19T09:03:12;30.08;;;4.05;;
35380;SDS011;21486;51.916;8.378;2023-11-19T09:05:37;21.87;;;5.03;;
35380;SDS011;21486;51.916;8.378;2023-11-19T09:08:03;33.73;;;4.83;;
35380;SDS011;21486;51.916;8.378;2023-11-19T09:10:29;25.40;;;4.75;;
35380;SDS011;21486;51.916;8.378;2023-11-19T09:12:55;32.17;;;4.43;;
35380;SDS011;21486;51.916;8.378;2023-11-19T09:15:20;31.70;;;5.05;;
35380;SDS011;21486;51.916;8.378;2023-11-19T09:17:46;26.75;;;4.65;;
35380;SDS011;21486;51.916;8.378;2023-11-19T09:20:12;30.93;;;4.83;;
35380;SDS011;21486;51.916;8.378;2023-11-19T09:22:40;25.42;;;4.32;;
35380;SDS011;21486;51.916;8.378;2023-11-19T09:25:06;28.73;;;4.63;;
35380;SDS011;21486;51.916;8.378;2023-11-19T09:27:32;35.65;;;5.78;;
35380;SDS011;21486;51.916;8.378;2023-11-19T09:29:58;25.77;;;4.30;;
35380;SDS011;21486;51.916;8.378;2023-11-19T09:32:24;30.85;;;5.15;;
35380;SDS011;21486;51.916;8.378;2023-11-19T09:34:50;27.67;;;5.40;;
35380;SDS011;21486;51.916;8.378;2023-11-19T09:37:15;30.57;;;5.37;;
35380;SDS011;21486;51.916;8.378;2023-11-19T09:39:41;26.00;;;4.93;;
35380;SDS011;21486;51.916;8.378;2023-11-19T09:42:10;29.13;;;5.15;;
35380;SDS011;21486;51.916;8.378;2023-11-19T09:44:36;33.05;;;5.75;;
35380;SDS011;21486;51.916;8.378;2023-11-19T09:47:04;28.00;;;4.23;;
35380;SDS011;21486;51.916;8.378;2023-11-19T09:49:30;28.92;;;4.53;;
35380;SDS011;21486;51.916;8.378;2023-11-19T09:51:56;26.33;;;4.50;;
35380;SDS011;21486;51.916;8.378;2023-11-19T09:54:22;32.33;;;5.20;;
35380;SDS011;21486;51.916;8.378;2023-11-19T09:56:48;26.05;;;4.70;;
35380;SDS011;21486;51.916;8.378;2023-11-19T09:59:14;27.10;;;4.65;;
35380;SDS011;21486;51.916;8.378;2023-11-19T10:01:39;28.13;;;5.03;;
35380;SDS011;21486;51.916;8.378;2023-11-19T10:04:05;32.83;;;4.77;;
35380;SDS011;21486;51.916;8.378;2023-11-19T10:06:32;29.07;;;5.67;;
35380;SDS011;21486;51.916;8.378;2023-11-19T10:08:57;31.60;;;4.47;;
35380;SDS011;21486;51.916;8.378;2023-11-19T10:11:24;29.48;;;4.60;;
35380;SDS011;21486;51.916;8.378;2023-11-19T10:13:51;26.42;;;4.25;;
35380;SDS011;21486;51.916;8.378;2023-11-19T10:16:18;25.47;;;4.07;;
35380;SDS011;21486;51.916;8.378;2023-11-19T10:18:44;29.77;;;5.50;;
35380;SDS011;21486;51.916;8.378;2023-11-19T10:21:12;26.02;;;5.18;;
35380;SDS011;21486;51.916;8.378;2023-11-19T10:23:47;24.37;;;4.07;;
35380;SDS011;21486;51.916;8.378;2023-11-19T10:26:22;27.90;;;4.23;;
35380;SDS011;21486;51.916;8.378;2023-11-19T10:28:48;31.13;;;4.22;;
35380;SDS011;21486;51.916;8.378;2023-11-19T10:31:14;30.38;;;4.55;;
35380;SDS011;21486;51.916;8.378;2023-11-19T10:33:41;29.83;;;4.78;;
35380;SDS011;21486;51.916;8.378;2023-11-19T10:36:09;37.10;;;5.80;;
35380;SDS011;21486;51.916;8.378;2023-11-19T10:38:37;34.92;;;5.03;;
35380;SDS011;21486;51.916;8.378;2023-11-19T10:41:03;37.92;;;5.57;;
35380;SDS011;21486;51.916;8.378;2023-11-19T10:43:30;29.58;;;4.47;;
35380;SDS011;21486;51.916;8.378;2023-11-19T10:46:17;27.45;;;4.13;;
35380;SDS011;21486;51.916;8.378;2023-11-19T10:48:45;25.42;;;4.45;;
35380;SDS011;21486;51.916;8.378;2023-11-19T10:51:11;30.23;;;4.73;;
35380;SDS011;21486;51.916;8.378;2023-11-19T10:53:46;32.28;;;4.57;;
35380;SDS011;21486;51.916;8.378;2023-11-19T10:56:13;34.20;;;5.28;;
35380;SDS011;21486;51.916;8.378;2023-11-19T10:58:44;27.90;;;5.88;;
35380;SDS011;21486;51.916;8.378;2023-11-19T11:01:16;26.03;;;5.03;;
35380;SDS011;21486;51.916;8.378;2023-11-19T11:03:46;32.42;;;6.05;;
35380;SDS011;21486;51.916;8.378;2023-11-19T11:06:12;36.50;;;5.85;;
35380;SDS011;21486;51.916;8.378;2023-11-19T11:08:38;29.05;;;6.72;;
35380;SDS011;21486;51.916;8.378;2023-11-19T11:11:05;23.30;;;4.15;;
35380;SDS011;21486;51.916;8.378;2023-11-19T11:13:32;32.45;;;4.80;;
35380;SDS011;21486;51.916;8.378;2023-11-19T11:15:59;32.45;;;5.28;;
35380;SDS011;21486;51.916;8.378;2023-11-19T11:18:25;30.35;;;4.00;;
35380;SDS011;21486;51.916;8.378;2023-11-19T11:21:11;28.65;;;5.20;;
35380;SDS011;21486;51.916;8.378;2023-11-19T11:23:47;23.83;;;5.03;;
35380;SDS011;21486;51.916;8.378;2023-11-19T11:26:46;32.03;;;4.80;;
35380;SDS011;21486;51.916;8.378;2023-11-19T11:29:41;35.90;;;5.45;;
35380;SDS011;21486;51.916;8.378;2023-11-19T11:38:00;32.35;;;4.60;;
35380;SDS011;21486;51.916;8.378;2023-11-19T11:40:38;31.35;;;6.25;;
35380;SDS011;21486;51.916;8.378;2023-11-19T11:43:12;28.58;;;5.68;;
35380;SDS011;21486;51.916;8.378;2023-11-19T11:46:09;29.42;;;5.18;;
35380;SDS011;21486;51.916;8.378;2023-11-19T11:48:59;35.83;;;6.80;;
35380;SDS011;21486;51.916;8.378;2023-11-19T11:54:10;28.48;;;5.43;;
35380;SDS011;21486;51.916;8.378;2023-11-19T11:56:38;33.20;;;5.43;;
35380;SDS011;21486;51.916;8.378;2023-11-19T11:59:08;28.00;;;4.75;;
35380;SDS011;21486;51.916;8.378;2023-11-19T12:01:58;30.52;;;5.10;;
35380;SDS011;21486;51.916;8.378;2023-11-19T12:04:27;33.13;;;5.20;;
35380;SDS011;21486;51.916;8.378;2023-11-19T12:07:12;24.02;;;4.35;;
35380;SDS011;21486;51.916;8.378;2023-11-19T12:09:46;27.90;;;4.57;;
35380;SDS011;21486;51.916;8.378;2023-11-19T12:12:33;27.70;;;4.95;;
35380;SDS011;21486;51.916;8.378;2023-11-19T12:15:00;25.02;;;4.78;;
35380;SDS011;21486;51.916;8.378;2023-11-19T12:17:36;37.50;;;4.90;;
35380;SDS011;21486;51.916;8.378;2023-11-19T12:20:06;24.17;;;4.85;;
35380;SDS011;21486;51.916;8.378;2023-11-19T12:22:39;26.83;;;4.38;;
35380;SDS011;21486;51.916;8.378;2023-11-19T12:25:10;24.13;;;4.35;;
35380;SDS011;21486;51.916;8.378;2023-11-19T12:27:37;25.85;;;4.80;;
35380;SDS011;21486;51.916;8.378;2023-11-19T12:30:06;25.70;;;4.43;;
35380;SDS011;21486;51.916;8.378;2023-11-19T12:35:07;29.23;;;5.30;;
35380;SDS011;21486;51.916;8.378;2023-11-19T12:37:42;25.70;;;4.10;;
35380;SDS011;21486;51.916;8.378;2023-11-19T12:42:45;29.60;;;4.80;;
35380;SDS011;21486;51.916;8.378;2023-11-19T12:45:11;27.00;;;4.32;;
35380;SDS011;21486;51.916;8.378;2023-11-19T12:47:38;27.52;;;5.00;;
35380;SDS011;21486;51.916;8.378;2023-11-19T12:50:05;21.85;;;3.92;;
35380;SDS011;21486;51.916;8.378;2023-11-19T12:52:33;21.17;;;4.00;;
35380;SDS011;21486;51.916;8.378;2023-11-19T12:54:59;20.17;;;4.60;;
35380;SDS011;21486;51.916;8.378;2023-11-19T12:57:41;21.67;;;4.43;;
35380;SDS011;21486;51.916;8.378;2023-11-19T13:00:08;31.63;;;5.55;;
35380;SDS011;21486;51.916;8.378;2023-11-19T13:02:48;24.00;;;5.10;;
35380;SDS011;21486;51.916;8.378;2023-11-19T13:10:25;22.83;;;5.38;;
35380;SDS011;21486;51.916;8.378;2023-11-19T13:15:26;24.90;;;4.72;;
35380;SDS011;21486;51.916;8.378;2023-11-19T13:17:52;23.90;;;4.63;;
35380;SDS011;21486;51.916;8.378;2023-11-19T13:20:17;21.73;;;4.55;;
35380;SDS011;21486;51.916;8.378;2023-11-19T13:22:56;20.70;;;4.28;;
35380;SDS011;21486;51.916;8.378;2023-11-19T13:25:26;22.02;;;4.50;;
35380;SDS011;21486;51.916;8.378;2023-11-19T13:27:53;23.30;;;4.28;;
35380;SDS011;21486;51.916;8.378;2023-11-19T13:30:19;27.73;;;4.97;;
35380;SDS011;21486;51.916;8.378;2023-11-19T13:32:47;23.40;;;5.07;;
35380;SDS011;21486;51.916;8.378;2023-11-19T13:35:13;24.67;;;4.43;;
35380;SDS011;21486;51.916;8.378;2023-11-19T13:37:39;24.83;;;4.47;;
35380;SDS011;21486;51.916;8.378;2023-11-19T13:40:06;24.92;;;4.80;;
35380;SDS011;21486;51.916;8.378;2023-11-19T13:42:32;26.60;;;5.20;;
35380;SDS011;21486;51.916;8.378;2023-11-19T13:44:58;25.63;;;4.30;;
35380;SDS011;21486;51.916;8.378;2023-11-19T13:47:23;28.30;;;5.05;;
35380;SDS011;21486;51.916;8.378;2023-11-19T13:49:49;28.48;;;4.30;;
35380;SDS011;21486;51.916;8.378;2023-11-19T13:52:15;30.60;;;4.63;;
35380;SDS011;21486;51.916;8.378;2023-11-19T13:54:40;21.13;;;4.53;;
35380;SDS011;21486;51.916;8.378;2023-11-19T13:57:06;24.43;;;3.60;;
35380;SDS011;21486;51.916;8.378;2023-11-19T13:59:31;19.45;;;4.03;;
35380;SDS011;21486;51.916;8.378;2023-11-19T14:01:57;27.15;;;4.50;;
35380;SDS011;21486;51.916;8.378;2023-11-19T14:04:23;28.73;;;5.80;;
35380;SDS011;21486;51.916;8.378;2023-11-19T14:06:49;22.95;;;3.83;;
35380;SDS011;21486;51.916;8.378;2023-11-19T14:09:15;27.00;;;5.25;;
35380;SDS011;21486;51.916;8.378;2023-11-19T14:11:41;20.77;;;3.83;;
35380;SDS011;21486;51.916;8.378;2023-11-19T14:14:07;23.10;;;3.50;;
35380;SDS011;21486;51.916;8.378;2023-11-19T14:16:33;20.07;;;3.87;;
35380;SDS011;21486;51.916;8.378;2023-11-19T14:18:59;27.63;;;6.20;;
35380;SDS011;21486;51.916;8.378;2023-11-19T14:21:25;20.00;;;4.05;;
35380;SDS011;21486;51.916;8.378;2023-11-19T14:23:51;28.45;;;6.18;;
35380;SDS011;21486;51.916;8.378;2023-11-19T14:26:20;30.40;;;8.05;;
35380;SDS011;21486;51.916;8.378;2023-11-19T14:28:45;20.55;;;4.82;;
35380;SDS011;21486;51.916;8.378;2023-11-19T14:31:11;24.80;;;5.03;;
35380;SDS011;21486;51.916;8.378;2023-11-19T14:33:38;22.55;;;4.05;;
35380;SDS011;21486;51.916;8.378;2023-11-19T14:36:03;17.97;;;5.53;;
35380;SDS011;21486;51.916;8.378;2023-11-19T14:38:31;21.05;;;3.83;;
35380;SDS011;21486;51.916;8.378;2023-11-19T14:40:57;16.92;;;3.30;;
35380;SDS011;21486;51.916;8.378;2023-11-19T14:43:24;19.50;;;3.50;;
35380;SDS011;21486;51.916;8.378;2023-11-19T14:45:50;16.53;;;3.20;;
35380;SDS011;21486;51.916;8.378;2023-11-19T14:48:16;14.73;;;2.93;;
35380;SDS011;21486;51.916;8.378;2023-11-19T14:50:42;14.75;;;2.92;;
35380;SDS011;21486;51.916;8.378;2023-11-19T14:53:09;18.17;;;3.70;;
35380;SDS011;21486;51.916;8.378;2023-11-19T14:55:35;21.03;;;3.30;;
35380;SDS011;21486;51.916;8.378;2023-11-19T14:58:01;19.77;;;3.60;;
35380;SDS011;21486;51.916;8.378;2023-11-19T15:00:26;24.13;;;4.00;;
35380;SDS011;21486;51.916;8.378;2023-11-19T15:02:52;18.45;;;2.97;;
35380;SDS011;21486;51.916;8.378;2023-11-19T15:05:17;17.13;;;3.90;;